sensor_id;sensor_type;location;lat;lon;timestamp;temperature;humidity
66598;DHT22;57424;53.128;6.406;2022-07-21T00:00:41;26.00;55.30
66598;DHT22;57424;53.128;6.406;2022-07-21T00:03:06;26.00;55.30
66598;DHT22;57424;53.128;6.406;2022-07-21T00:05:32;26.00;55.30
66598;DHT22;57424;53.128;6.406;2022-07-21T00:07:58;26.00;55.40
66598;DHT22;57424;53.128;6.406;2022-07-21T00:10:25;26.00;55.30
66598;DHT22;57424;53.128;6.406;2022-07-21T00:12:51;26.00;55.30
66598;DHT22;57424;53.128;6.406;2022-07-21T00:15:19;26.00;55.40
66598;DHT22;57424;53.128;6.406;2022-07-21T00:17:44;26.00;55.40
66598;DHT22;57424;53.128;6.406;2022-07-21T00:20:12;25.90;55.30
66598;DHT22;57424;53.128;6.406;2022-07-21T00:22:38;25.90;55.40
66598;DHT22;57424;53.128;6.406;2022-07-21T00:25:05;25.90;55.40
66598;DHT22;57424;53.128;6.406;2022-07-21T00:27:31;26.00;55.40
66598;DHT22;57424;53.128;6.406;2022-07-21T00:29:57;25.90;55.40
66598;DHT22;57424;53.128;6.406;2022-07-21T00:32:22;25.90;55.40
66598;DHT22;57424;53.128;6.406;2022-07-21T00:34:48;25.90;55.50
66598;DHT22;57424;53.128;6.406;2022-07-21T00:37:13;25.90;55.40
66598;DHT22;57424;53.128;6.406;2022-07-21T00:39:39;25.90;55.40
66598;DHT22;57424;53.128;6.406;2022-07-21T00:42:05;25.90;55.40
66598;DHT22;57424;53.128;6.406;2022-07-21T00:44:31;25.90;55.40
66598;DHT22;57424;53.128;6.406;2022-07-21T00:46:56;25.90;55.50
66598;DHT22;57424;53.128;6.406;2022-07-21T00:49:22;25.90;55.50
66598;DHT22;57424;53.128;6.406;2022-07-21T00:51:49;25.90;55.50
66598;DHT22;57424;53.128;6.406;2022-07-21T00:54:16;25.90;55.50
66598;DHT22;57424;53.128;6.406;2022-07-21T00:56:42;25.90;55.50
66598;DHT22;57424;53.128;6.406;2022-07-21T00:59:08;25.90;55.50
66598;DHT22;57424;53.128;6.406;2022-07-21T01:01:35;25.90;55.60
66598;DHT22;57424;53.128;6.406;2022-07-21T01:04:00;25.80;56.10
66598;DHT22;57424;53.128;6.406;2022-07-21T01:06:26;25.90;55.50
66598;DHT22;57424;53.128;6.406;2022-07-21T01:08:53;25.80;56.20
66598;DHT22;57424;53.128;6.406;2022-07-21T01:11:20;25.80;55.50
66598;DHT22;57424;53.128;6.406;2022-07-21T01:13:47;25.80;55.50
66598;DHT22;57424;53.128;6.406;2022-07-21T01:16:13;25.80;55.50
66598;DHT22;57424;53.128;6.406;2022-07-21T01:18:39;25.80;55.50
66598;DHT22;57424;53.128;6.406;2022-07-21T01:21:32;25.80;55.50
66598;DHT22;57424;53.128;6.406;2022-07-21T01:23:56;25.80;55.50
66598;DHT22;57424;53.128;6.406;2022-07-21T01:26:21;25.80;55.50
66598;DHT22;57424;53.128;6.406;2022-07-21T01:28:47;25.80;55.50
66598;DHT22;57424;53.128;6.406;2022-07-21T01:31:13;25.80;55.60
66598;DHT22;57424;53.128;6.406;2022-07-21T01:33:40;25.80;55.60
66598;DHT22;57424;53.128;6.406;2022-07-21T01:36:05;25.80;55.60
66598;DHT22;57424;53.128;6.406;2022-07-21T01:38:31;25.80;55.60
66598;DHT22;57424;53.128;6.406;2022-07-21T01:41:15;25.80;55.60
66598;DHT22;57424;53.128;6.406;2022-07-21T01:43:57;25.80;55.60
66598;DHT22;57424;53.128;6.406;2022-07-21T01:46:23;25.80;55.60
66598;DHT22;57424;53.128;6.406;2022-07-21T01:48:49;25.80;55.60
66598;DHT22;57424;53.128;6.406;2022-07-21T01:51:15;25.80;55.60
66598;DHT22;57424;53.128;6.406;2022-07-21T01:53:40;25.80;55.60
66598;DHT22;57424;53.128;6.406;2022-07-21T01:56:06;25.80;55.60
66598;DHT22;57424;53.128;6.406;2022-07-21T01:58:33;25.80;55.60
66598;DHT22;57424;53.128;6.406;2022-07-21T02:00:59;25.80;55.70
66598;DHT22;57424;53.128;6.406;2022-07-21T02:03:24;25.80;55.70
66598;DHT22;57424;53.128;6.406;2022-07-21T02:05:50;25.80;55.70
66598;DHT22;57424;53.128;6.406;2022-07-21T02:08:16;25.80;55.70
66598;DHT22;57424;53.128;6.406;2022-07-21T02:10:41;25.80;55.70
66598;DHT22;57424;53.128;6.406;2022-07-21T02:13:07;25.70;55.60
66598;DHT22;57424;53.128;6.406;2022-07-21T02:15:33;25.70;55.70
66598;DHT22;57424;53.128;6.406;2022-07-21T02:17:59;25.70;55.60
66598;DHT22;57424;53.128;6.406;2022-07-21T02:20:25;25.70;55.70
66598;DHT22;57424;53.128;6.406;2022-07-21T02:22:51;25.70;55.70
66598;DHT22;57424;53.128;6.406;2022-07-21T02:25:17;25.70;55.70
66598;DHT22;57424;53.128;6.406;2022-07-21T02:27:44;25.70;55.70
66598;DHT22;57424;53.128;6.406;2022-07-21T02:30:10;25.70;55.70
66598;DHT22;57424;53.128;6.406;2022-07-21T02:32:36;25.70;55.70
66598;DHT22;57424;53.128;6.406;2022-07-21T02:35:03;25.70;55.70
66598;DHT22;57424;53.128;6.406;2022-07-21T02:37:29;25.70;55.70
66598;DHT22;57424;53.128;6.406;2022-07-21T02:39:54;25.70;55.80
66598;DHT22;57424;53.128;6.406;2022-07-21T02:42:20;25.70;55.80
66598;DHT22;57424;53.128;6.406;2022-07-21T02:44:45;25.70;55.80
66598;DHT22;57424;53.128;6.406;2022-07-21T02:47:11;25.70;55.80
66598;DHT22;57424;53.128;6.406;2022-07-21T02:49:37;25.70;55.80
66598;DHT22;57424;53.128;6.406;2022-07-21T02:52:03;25.70;55.80
66598;DHT22;57424;53.128;6.406;2022-07-21T02:54:29;25.70;55.80
66598;DHT22;57424;53.128;6.406;2022-07-21T02:56:54;25.70;55.80
66598;DHT22;57424;53.128;6.406;2022-07-21T02:59:20;25.70;55.90
66598;DHT22;57424;53.128;6.406;2022-07-21T03:01:46;25.60;55.80
66598;DHT22;57424;53.128;6.406;2022-07-21T03:04:11;25.60;55.80
66598;DHT22;57424;53.128;6.406;2022-07-21T03:06:37;25.60;55.80
66598;DHT22;57424;53.128;6.406;2022-07-21T03:09:03;25.70;55.90
66598;DHT22;57424;53.128;6.406;2022-07-21T03:11:29;25.60;55.80
66598;DHT22;57424;53.128;6.406;2022-07-21T03:13:54;25.60;55.90
66598;DHT22;57424;53.128;6.406;2022-07-21T03:16:20;25.60;55.90
66598;DHT22;57424;53.128;6.406;2022-07-21T03:18:45;25.60;55.90
66598;DHT22;57424;53.128;6.406;2022-07-21T03:21:11;25.60;55.90
66598;DHT22;57424;53.128;6.406;2022-07-21T03:23:37;25.60;55.90
66598;DHT22;57424;53.128;6.406;2022-07-21T03:26:03;25.60;55.90
66598;DHT22;57424;53.128;6.406;2022-07-21T03:28:28;25.60;56.00
66598;DHT22;57424;53.128;6.406;2022-07-21T03:30:54;25.60;56.00
66598;DHT22;57424;53.128;6.406;2022-07-21T03:33:19;25.60;56.00
66598;DHT22;57424;53.128;6.406;2022-07-21T03:35:45;25.50;55.90
66598;DHT22;57424;53.128;6.406;2022-07-21T03:38:10;25.60;56.00
66598;DHT22;57424;53.128;6.406;2022-07-21T03:40:38;25.50;56.00
66598;DHT22;57424;53.128;6.406;2022-07-21T03:43:04;25.60;56.00
66598;DHT22;57424;53.128;6.406;2022-07-21T03:45:32;25.50;56.00
66598;DHT22;57424;53.128;6.406;2022-07-21T03:47:58;25.50;56.00
66598;DHT22;57424;53.128;6.406;2022-07-21T03:50:25;25.50;55.90
66598;DHT22;57424;53.128;6.406;2022-07-21T03:52:50;25.50;56.10
66598;DHT22;57424;53.128;6.406;2022-07-21T03:55:16;25.50;56.00
66598;DHT22;57424;53.128;6.406;2022-07-21T03:58:05;25.50;56.00
66598;DHT22;57424;53.128;6.406;2022-07-21T04:00:40;25.50;56.10
66598;DHT22;57424;53.128;6.406;2022-07-21T04:03:06;25.50;56.10
66598;DHT22;57424;53.128;6.406;2022-07-21T04:05:33;25.50;56.10
66598;DHT22;57424;53.128;6.406;2022-07-21T04:07:59;25.50;56.10
66598;DHT22;57424;53.128;6.406;2022-07-21T04:10:27;25.50;56.10
66598;DHT22;57424;53.128;6.406;2022-07-21T04:12:54;25.50;56.10
66598;DHT22;57424;53.128;6.406;2022-07-21T04:15:20;25.50;56.10
66598;DHT22;57424;53.128;6.406;2022-07-21T04:17:47;25.50;56.20
66598;DHT22;57424;53.128;6.406;2022-07-21T04:20:14;25.50;56.10
66598;DHT22;57424;53.128;6.406;2022-07-21T04:22:41;25.50;56.20
66598;DHT22;57424;53.128;6.406;2022-07-21T04:25:07;25.50;56.20
66598;DHT22;57424;53.128;6.406;2022-07-21T04:27:34;25.50;56.20
66598;DHT22;57424;53.128;6.406;2022-07-21T04:30:01;25.50;56.20
66598;DHT22;57424;53.128;6.406;2022-07-21T04:32:26;25.50;56.20
66598;DHT22;57424;53.128;6.406;2022-07-21T04:34:52;25.50;56.90
66598;DHT22;57424;53.128;6.406;2022-07-21T04:37:18;25.50;56.20
66598;DHT22;57424;53.128;6.406;2022-07-21T04:39:43;25.50;56.20
66598;DHT22;57424;53.128;6.406;2022-07-21T04:42:09;25.50;56.20
66598;DHT22;57424;53.128;6.406;2022-07-21T04:44:34;25.50;56.20
66598;DHT22;57424;53.128;6.406;2022-07-21T04:47:01;25.40;56.20
66598;DHT22;57424;53.128;6.406;2022-07-21T04:49:26;25.40;56.20
66598;DHT22;57424;53.128;6.406;2022-07-21T04:51:52;25.50;56.30
66598;DHT22;57424;53.128;6.406;2022-07-21T04:54:18;25.40;56.20
66598;DHT22;57424;53.128;6.406;2022-07-21T04:56:44;25.40;56.20
66598;DHT22;57424;53.128;6.406;2022-07-21T04:59:10;25.40;56.30
66598;DHT22;57424;53.128;6.406;2022-07-21T05:01:37;25.40;56.20
66598;DHT22;57424;53.128;6.406;2022-07-21T05:04:04;25.40;56.30
66598;DHT22;57424;53.128;6.406;2022-07-21T05:06:31;25.40;56.30
66598;DHT22;57424;53.128;6.406;2022-07-21T05:08:56;25.40;56.30
66598;DHT22;57424;53.128;6.406;2022-07-21T05:11:22;25.40;56.30
66598;DHT22;57424;53.128;6.406;2022-07-21T05:13:48;25.40;56.30
66598;DHT22;57424;53.128;6.406;2022-07-21T05:16:13;25.40;56.30
66598;DHT22;57424;53.128;6.406;2022-07-21T05:18:39;25.40;56.30
66598;DHT22;57424;53.128;6.406;2022-07-21T05:21:04;25.40;56.30
66598;DHT22;57424;53.128;6.406;2022-07-21T05:23:30;25.40;56.30
66598;DHT22;57424;53.128;6.406;2022-07-21T05:25:56;25.40;56.40
66598;DHT22;57424;53.128;6.406;2022-07-21T05:28:21;25.40;56.40
66598;DHT22;57424;53.128;6.406;2022-07-21T05:30:47;25.40;56.40
66598;DHT22;57424;53.128;6.406;2022-07-21T05:33:12;25.40;56.40
66598;DHT22;57424;53.128;6.406;2022-07-21T05:35:38;25.40;56.40
66598;DHT22;57424;53.128;6.406;2022-07-21T05:38:04;25.40;56.40
66598;DHT22;57424;53.128;6.406;2022-07-21T05:40:29;25.40;57.20
66598;DHT22;57424;53.128;6.406;2022-07-21T05:42:55;25.30;56.40
66598;DHT22;57424;53.128;6.406;2022-07-21T05:45:20;25.40;56.50
66598;DHT22;57424;53.128;6.406;2022-07-21T05:47:46;25.30;56.40
66598;DHT22;57424;53.128;6.406;2022-07-21T05:50:12;25.40;56.60
66598;DHT22;57424;53.128;6.406;2022-07-21T05:52:38;25.40;56.60
66598;DHT22;57424;53.128;6.406;2022-07-21T05:55:05;25.40;56.60
66598;DHT22;57424;53.128;6.406;2022-07-21T05:57:31;25.40;56.60
66598;DHT22;57424;53.128;6.406;2022-07-21T05:59:57;25.40;56.50
66598;DHT22;57424;53.128;6.406;2022-07-21T06:02:24;25.40;56.70
66598;DHT22;57424;53.128;6.406;2022-07-21T06:04:49;25.40;56.60
66598;DHT22;57424;53.128;6.406;2022-07-21T06:07:15;25.40;56.60
66598;DHT22;57424;53.128;6.406;2022-07-21T06:09:41;25.40;56.50
66598;DHT22;57424;53.128;6.406;2022-07-21T06:12:06;25.40;56.60
66598;DHT22;57424;53.128;6.406;2022-07-21T06:14:32;25.40;56.60
66598;DHT22;57424;53.128;6.406;2022-07-21T06:16:57;25.40;56.60
66598;DHT22;57424;53.128;6.406;2022-07-21T06:19:23;25.40;56.70
66598;DHT22;57424;53.128;6.406;2022-07-21T06:21:48;25.40;56.90
66598;DHT22;57424;53.128;6.406;2022-07-21T06:24:14;25.40;56.90
66598;DHT22;57424;53.128;6.406;2022-07-21T06:26:40;25.50;57.00
66598;DHT22;57424;53.128;6.406;2022-07-21T06:29:06;25.40;56.90
66598;DHT22;57424;53.128;6.406;2022-07-21T06:31:32;25.50;57.00
66598;DHT22;57424;53.128;6.406;2022-07-21T06:33:58;25.40;57.00
66598;DHT22;57424;53.128;6.406;2022-07-21T06:36:23;25.40;57.00
66598;DHT22;57424;53.128;6.406;2022-07-21T06:38:49;25.50;57.20
66598;DHT22;57424;53.128;6.406;2022-07-21T06:41:14;25.40;57.10
66598;DHT22;57424;53.128;6.406;2022-07-21T06:43:40;25.50;57.90
66598;DHT22;57424;53.128;6.406;2022-07-21T06:46:05;25.50;57.30
66598;DHT22;57424;53.128;6.406;2022-07-21T06:48:31;25.40;57.20
66598;DHT22;57424;53.128;6.406;2022-07-21T06:50:57;25.40;57.20
66598;DHT22;57424;53.128;6.406;2022-07-21T06:53:23;25.50;57.40
66598;DHT22;57424;53.128;6.406;2022-07-21T06:55:50;25.50;57.50
66598;DHT22;57424;53.128;6.406;2022-07-21T06:58:23;25.40;57.40
66598;DHT22;57424;53.128;6.406;2022-07-21T07:00:50;25.40;57.40
66598;DHT22;57424;53.128;6.406;2022-07-21T07:03:17;25.40;57.60
66598;DHT22;57424;53.128;6.406;2022-07-21T07:05:45;25.50;57.60
66598;DHT22;57424;53.128;6.406;2022-07-21T07:08:11;25.50;57.60
66598;DHT22;57424;53.128;6.406;2022-07-21T07:10:38;25.50;57.60
66598;DHT22;57424;53.128;6.406;2022-07-21T07:13:04;25.50;57.70
66598;DHT22;57424;53.128;6.406;2022-07-21T07:15:30;25.40;57.60
66598;DHT22;57424;53.128;6.406;2022-07-21T07:17:56;25.40;57.60
66598;DHT22;57424;53.128;6.406;2022-07-21T07:20:22;25.50;57.70
66598;DHT22;57424;53.128;6.406;2022-07-21T07:22:48;25.50;57.70
66598;DHT22;57424;53.128;6.406;2022-07-21T07:25:14;25.40;57.80
66598;DHT22;57424;53.128;6.406;2022-07-21T07:27:45;25.40;57.90
66598;DHT22;57424;53.128;6.406;2022-07-21T07:30:12;25.40;58.00
66598;DHT22;57424;53.128;6.406;2022-07-21T07:32:37;25.40;58.00
66598;DHT22;57424;53.128;6.406;2022-07-21T07:35:04;25.40;58.20
66598;DHT22;57424;53.128;6.406;2022-07-21T07:37:30;25.40;58.50
66598;DHT22;57424;53.128;6.406;2022-07-21T07:39:56;25.40;58.70
66598;DHT22;57424;53.128;6.406;2022-07-21T07:42:21;25.30;58.80
66598;DHT22;57424;53.128;6.406;2022-07-21T07:44:47;25.30;58.90
66598;DHT22;57424;53.128;6.406;2022-07-21T07:47:13;25.30;59.10
66598;DHT22;57424;53.128;6.406;2022-07-21T07:49:39;25.30;59.20
66598;DHT22;57424;53.128;6.406;2022-07-21T07:52:04;25.20;59.30
66598;DHT22;57424;53.128;6.406;2022-07-21T07:54:30;25.30;59.50
66598;DHT22;57424;53.128;6.406;2022-07-21T07:56:56;25.20;59.50
66598;DHT22;57424;53.128;6.406;2022-07-21T07:59:22;25.20;59.60
66598;DHT22;57424;53.128;6.406;2022-07-21T08:01:47;25.20;59.80
66598;DHT22;57424;53.128;6.406;2022-07-21T08:04:13;25.20;59.80
66598;DHT22;57424;53.128;6.406;2022-07-21T08:06:40;25.20;59.90
66598;DHT22;57424;53.128;6.406;2022-07-21T08:09:07;25.10;60.00
66598;DHT22;57424;53.128;6.406;2022-07-21T08:11:34;25.10;60.10
66598;DHT22;57424;53.128;6.406;2022-07-21T08:13:59;25.10;59.80
66598;DHT22;57424;53.128;6.406;2022-07-21T08:16:25;25.10;60.20
66598;DHT22;57424;53.128;6.406;2022-07-21T08:18:51;25.10;60.30
66598;DHT22;57424;53.128;6.406;2022-07-21T08:21:17;25.00;60.40
66598;DHT22;57424;53.128;6.406;2022-07-21T08:23:42;25.10;60.50
66598;DHT22;57424;53.128;6.406;2022-07-21T08:26:08;25.00;60.60
66598;DHT22;57424;53.128;6.406;2022-07-21T08:28:33;25.00;60.70
66598;DHT22;57424;53.128;6.406;2022-07-21T08:30:59;25.00;60.70
66598;DHT22;57424;53.128;6.406;2022-07-21T08:33:24;25.00;60.80
66598;DHT22;57424;53.128;6.406;2022-07-21T08:35:50;25.00;60.80
66598;DHT22;57424;53.128;6.406;2022-07-21T08:38:15;24.90;60.90
66598;DHT22;57424;53.128;6.406;2022-07-21T08:40:44;25.00;60.90
66598;DHT22;57424;53.128;6.406;2022-07-21T08:43:11;24.90;60.90
66598;DHT22;57424;53.128;6.406;2022-07-21T08:45:38;24.90;60.90
66598;DHT22;57424;53.128;6.406;2022-07-21T08:48:04;24.90;60.90
66598;DHT22;57424;53.128;6.406;2022-07-21T08:50:39;24.90;60.90
66598;DHT22;57424;53.128;6.406;2022-07-21T08:53:05;24.90;61.00
66598;DHT22;57424;53.128;6.406;2022-07-21T08:55:36;24.90;61.10
66598;DHT22;57424;53.128;6.406;2022-07-21T08:58:03;24.90;61.10
66598;DHT22;57424;53.128;6.406;2022-07-21T09:00:31;24.90;61.10
66598;DHT22;57424;53.128;6.406;2022-07-21T09:03:09;24.90;61.10
66598;DHT22;57424;53.128;6.406;2022-07-21T09:05:35;24.90;61.00
66598;DHT22;57424;53.128;6.406;2022-07-21T09:08:01;24.90;61.10
66598;DHT22;57424;53.128;6.406;2022-07-21T09:10:28;24.90;61.10
66598;DHT22;57424;53.128;6.406;2022-07-21T09:12:56;24.90;61.10
66598;DHT22;57424;53.128;6.406;2022-07-21T09:15:24;24.90;61.20
66598;DHT22;57424;53.128;6.406;2022-07-21T09:18:13;24.90;61.40
66598;DHT22;57424;53.128;6.406;2022-07-21T09:20:50;24.90;61.40
66598;DHT22;57424;53.128;6.406;2022-07-21T09:23:19;24.90;61.60
66598;DHT22;57424;53.128;6.406;2022-07-21T09:25:49;24.90;62.20
66598;DHT22;57424;53.128;6.406;2022-07-21T09:28:16;24.90;61.50
66598;DHT22;57424;53.128;6.406;2022-07-21T09:33:26;24.90;61.40
66598;DHT22;57424;53.128;6.406;2022-07-21T09:36:15;24.80;61.50
66598;DHT22;57424;53.128;6.406;2022-07-21T09:38:50;24.90;61.50
66598;DHT22;57424;53.128;6.406;2022-07-21T09:41:21;24.90;61.70
66598;DHT22;57424;53.128;6.406;2022-07-21T09:46:25;24.80;61.70
66598;DHT22;57424;53.128;6.406;2022-07-21T09:48:54;24.80;61.70
66598;DHT22;57424;53.128;6.406;2022-07-21T09:51:33;24.80;61.80
66598;DHT22;57424;53.128;6.406;2022-07-21T09:54:04;24.80;61.70
66598;DHT22;57424;53.128;6.406;2022-07-21T09:56:34;24.80;61.80
66598;DHT22;57424;53.128;6.406;2022-07-21T09:59:02;24.80;61.80
66598;DHT22;57424;53.128;6.406;2022-07-21T10:01:29;24.80;61.70
66598;DHT22;57424;53.128;6.406;2022-07-21T10:03:56;24.80;61.70
66598;DHT22;57424;53.128;6.406;2022-07-21T10:06:30;24.80;61.70
66598;DHT22;57424;53.128;6.406;2022-07-21T10:08:58;24.80;61.80
66598;DHT22;57424;53.128;6.406;2022-07-21T10:11:25;24.80;61.90
66598;DHT22;57424;53.128;6.406;2022-07-21T10:13:52;24.70;62.00
66598;DHT22;57424;53.128;6.406;2022-07-21T10:16:18;24.70;61.90
66598;DHT22;57424;53.128;6.406;2022-07-21T10:19:04;24.70;61.90
66598;DHT22;57424;53.128;6.406;2022-07-21T10:21:51;24.80;62.00
66598;DHT22;57424;53.128;6.406;2022-07-21T10:24:18;24.80;62.00
66598;DHT22;57424;53.128;6.406;2022-07-21T10:27:08;24.70;62.10
66598;DHT22;57424;53.128;6.406;2022-07-21T10:29:54;24.70;61.90
66598;DHT22;57424;53.128;6.406;2022-07-21T10:32:24;24.80;61.90
66598;DHT22;57424;53.128;6.406;2022-07-21T10:34:51;24.80;61.90
66598;DHT22;57424;53.128;6.406;2022-07-21T10:45:42;24.80;61.20
66598;DHT22;57424;53.128;6.406;2022-07-21T10:51:11;24.80;60.90
66598;DHT22;57424;53.128;6.406;2022-07-21T10:53:37;24.90;60.90
66598;DHT22;57424;53.128;6.406;2022-07-21T10:56:03;24.90;60.80
66598;DHT22;57424;53.128;6.406;2022-07-21T10:58:39;24.80;60.60
66598;DHT22;57424;53.128;6.406;2022-07-21T11:03:42;24.90;60.40
66598;DHT22;57424;53.128;6.406;2022-07-21T11:06:23;24.90;60.40
66598;DHT22;57424;53.128;6.406;2022-07-21T11:11:17;24.90;60.40
66598;DHT22;57424;53.128;6.406;2022-07-21T11:24:58;25.10;60.50
66598;DHT22;57424;53.128;6.406;2022-07-21T11:27:25;25.10;60.50
66598;DHT22;57424;53.128;6.406;2022-07-21T11:29:55;25.10;60.50
66598;DHT22;57424;53.128;6.406;2022-07-21T11:32:21;25.10;60.40
66598;DHT22;57424;53.128;6.406;2022-07-21T11:34:54;25.10;60.40
66598;DHT22;57424;53.128;6.406;2022-07-21T11:39:57;25.20;60.40
66598;DHT22;57424;53.128;6.406;2022-07-21T11:42:24;25.10;60.30
66598;DHT22;57424;53.128;6.406;2022-07-21T11:44:51;25.20;60.40
66598;DHT22;57424;53.128;6.406;2022-07-21T11:47:16;25.20;60.40
66598;DHT22;57424;53.128;6.406;2022-07-21T11:49:43;25.20;60.30
66598;DHT22;57424;53.128;6.406;2022-07-21T11:52:13;25.20;60.30
66598;DHT22;57424;53.128;6.406;2022-07-21T11:54:48;25.20;60.30
66598;DHT22;57424;53.128;6.406;2022-07-21T11:57:16;25.20;60.30
66598;DHT22;57424;53.128;6.406;2022-07-21T11:59:43;25.20;60.30
66598;DHT22;57424;53.128;6.406;2022-07-21T12:02:11;25.20;60.20
66598;DHT22;57424;53.128;6.406;2022-07-21T12:04:59;25.20;60.20
66598;DHT22;57424;53.128;6.406;2022-07-21T12:07:29;25.20;60.20
66598;DHT22;57424;53.128;6.406;2022-07-21T12:10:00;25.20;60.20
66598;DHT22;57424;53.128;6.406;2022-07-21T12:12:39;25.30;60.30
66598;DHT22;57424;53.128;6.406;2022-07-21T12:15:23;25.20;60.20
66598;DHT22;57424;53.128;6.406;2022-07-21T12:17:56;25.20;60.10
66598;DHT22;57424;53.128;6.406;2022-07-21T12:20:30;25.30;60.20
66598;DHT22;57424;53.128;6.406;2022-07-21T12:23:02;25.30;60.10
66598;DHT22;57424;53.128;6.406;2022-07-21T12:25:35;25.30;60.10
66598;DHT22;57424;53.128;6.406;2022-07-21T12:28:03;25.30;60.00
66598;DHT22;57424;53.128;6.406;2022-07-21T12:30:40;25.30;60.00
66598;DHT22;57424;53.128;6.406;2022-07-21T12:33:13;25.30;60.00
66598;DHT22;57424;53.128;6.406;2022-07-21T12:35:42;25.30;60.00
66598;DHT22;57424;53.128;6.406;2022-07-21T12:40:36;25.30;59.90
66598;DHT22;57424;53.128;6.406;2022-07-21T12:43:07;25.30;59.90
66598;DHT22;57424;53.128;6.406;2022-07-21T12:45:52;25.30;59.90
66598;DHT22;57424;53.128;6.406;2022-07-21T12:48:23;25.30;59.80
66598;DHT22;57424;53.128;6.406;2022-07-21T12:53:24;25.30;59.80
66598;DHT22;57424;53.128;6.406;2022-07-21T12:55:49;25.30;59.80
66598;DHT22;57424;53.128;6.406;2022-07-21T12:58:15;25.30;59.80
66598;DHT22;57424;53.128;6.406;2022-07-21T13:00:40;25.30;59.70
66598;DHT22;57424;53.128;6.406;2022-07-21T13:03:06;25.30;59.70
66598;DHT22;57424;53.128;6.406;2022-07-21T13:05:32;25.30;59.70
66598;DHT22;57424;53.128;6.406;2022-07-21T13:07:57;25.30;59.70
66598;DHT22;57424;53.128;6.406;2022-07-21T13:10:23;25.30;59.70
66598;DHT22;57424;53.128;6.406;2022-07-21T13:12:48;25.30;59.70
66598;DHT22;57424;53.128;6.406;2022-07-21T13:15:15;25.30;59.60
66598;DHT22;57424;53.128;6.406;2022-07-21T13:17:41;25.30;59.60
66598;DHT22;57424;53.128;6.406;2022-07-21T13:20:07;25.30;59.60
66598;DHT22;57424;53.128;6.406;2022-07-21T13:22:33;25.30;59.60
66598;DHT22;57424;53.128;6.406;2022-07-21T13:24:59;25.30;59.50
66598;DHT22;57424;53.128;6.406;2022-07-21T13:27:24;25.30;59.50
66598;DHT22;57424;53.128;6.406;2022-07-21T13:29:50;25.30;59.50
66598;DHT22;57424;53.128;6.406;2022-07-21T13:32:15;25.30;59.50
66598;DHT22;57424;53.128;6.406;2022-07-21T13:34:41;25.30;59.50
66598;DHT22;57424;53.128;6.406;2022-07-21T13:37:06;25.30;59.80
66598;DHT22;57424;53.128;6.406;2022-07-21T13:39:37;25.30;59.50
66598;DHT22;57424;53.128;6.406;2022-07-21T13:42:04;25.30;59.50
66598;DHT22;57424;53.128;6.406;2022-07-21T13:44:30;25.40;59.60
66598;DHT22;57424;53.128;6.406;2022-07-21T13:46:57;25.30;59.40
66598;DHT22;57424;53.128;6.406;2022-07-21T13:49:22;25.40;59.40
66598;DHT22;57424;53.128;6.406;2022-07-21T13:51:48;25.30;59.40
66598;DHT22;57424;53.128;6.406;2022-07-21T13:54:14;25.30;59.30
66598;DHT22;57424;53.128;6.406;2022-07-21T13:56:39;25.30;59.40
66598;DHT22;57424;53.128;6.406;2022-07-21T13:59:05;25.30;59.40
66598;DHT22;57424;53.128;6.406;2022-07-21T14:01:30;25.30;59.30
66598;DHT22;57424;53.128;6.406;2022-07-21T14:03:56;25.30;59.30
66598;DHT22;57424;53.128;6.406;2022-07-21T14:06:22;25.30;59.30
66598;DHT22;57424;53.128;6.406;2022-07-21T14:08:48;25.30;59.30
66598;DHT22;57424;53.128;6.406;2022-07-21T14:11:14;25.30;59.30
66598;DHT22;57424;53.128;6.406;2022-07-21T14:13:40;25.30;59.30
66598;DHT22;57424;53.128;6.406;2022-07-21T14:16:06;25.30;59.30
66598;DHT22;57424;53.128;6.406;2022-07-21T14:18:32;25.30;59.30
66598;DHT22;57424;53.128;6.406;2022-07-21T14:20:57;25.30;59.30
66598;DHT22;57424;53.128;6.406;2022-07-21T14:23:23;25.30;59.30
66598;DHT22;57424;53.128;6.406;2022-07-21T14:25:50;25.30;59.30
66598;DHT22;57424;53.128;6.406;2022-07-21T14:28:16;25.30;59.40
66598;DHT22;57424;53.128;6.406;2022-07-21T14:30:42;25.30;59.40
66598;DHT22;57424;53.128;6.406;2022-07-21T14:33:08;25.30;59.40
66598;DHT22;57424;53.128;6.406;2022-07-21T14:35:34;25.30;59.40
66598;DHT22;57424;53.128;6.406;2022-07-21T14:38:00;25.30;59.40
66598;DHT22;57424;53.128;6.406;2022-07-21T14:40:26;25.20;59.30
66598;DHT22;57424;53.128;6.406;2022-07-21T14:42:53;25.30;59.30
66598;DHT22;57424;53.128;6.406;2022-07-21T14:45:20;25.30;59.30
66598;DHT22;57424;53.128;6.406;2022-07-21T14:47:46;25.20;59.20
66598;DHT22;57424;53.128;6.406;2022-07-21T14:50:13;25.30;59.30
66598;DHT22;57424;53.128;6.406;2022-07-21T14:52:40;25.20;59.20
66598;DHT22;57424;53.128;6.406;2022-07-21T14:55:06;25.30;59.30
66598;DHT22;57424;53.128;6.406;2022-07-21T14:57:33;25.30;59.30
66598;DHT22;57424;53.128;6.406;2022-07-21T14:59:58;25.30;59.30
66598;DHT22;57424;53.128;6.406;2022-07-21T15:02:24;25.20;59.20
66598;DHT22;57424;53.128;6.406;2022-07-21T15:04:50;25.20;59.20
66598;DHT22;57424;53.128;6.406;2022-07-21T15:07:16;25.20;59.20
66598;DHT22;57424;53.128;6.406;2022-07-21T15:09:42;25.20;59.20
66598;DHT22;57424;53.128;6.406;2022-07-21T15:12:08;25.20;59.20
66598;DHT22;57424;53.128;6.406;2022-07-21T15:14:35;25.20;59.10
66598;DHT22;57424;53.128;6.406;2022-07-21T15:17:01;25.20;59.20
66598;DHT22;57424;53.128;6.406;2022-07-21T15:19:27;25.20;59.10
66598;DHT22;57424;53.128;6.406;2022-07-21T15:21:52;25.20;59.10
66598;DHT22;57424;53.128;6.406;2022-07-21T15:24:18;25.20;59.10
66598;DHT22;57424;53.128;6.406;2022-07-21T15:26:44;25.20;59.10
66598;DHT22;57424;53.128;6.406;2022-07-21T15:29:09;25.30;59.20
66598;DHT22;57424;53.128;6.406;2022-07-21T15:31:35;25.20;59.10
66598;DHT22;57424;53.128;6.406;2022-07-21T15:34:01;25.20;59.10
66598;DHT22;57424;53.128;6.406;2022-07-21T15:36:27;25.20;59.10
66598;DHT22;57424;53.128;6.406;2022-07-21T15:38:52;25.20;59.10
66598;DHT22;57424;53.128;6.406;2022-07-21T15:41:18;25.20;59.10
66598;DHT22;57424;53.128;6.406;2022-07-21T15:43:44;25.20;59.10
66598;DHT22;57424;53.128;6.406;2022-07-21T15:46:09;25.20;59.10
66598;DHT22;57424;53.128;6.406;2022-07-21T15:48:35;25.20;59.10
66598;DHT22;57424;53.128;6.406;2022-07-21T15:51:01;25.20;59.00
66598;DHT22;57424;53.128;6.406;2022-07-21T15:53:28;25.20;59.00
66598;DHT22;57424;53.128;6.406;2022-07-21T15:55:54;25.20;59.00
66598;DHT22;57424;53.128;6.406;2022-07-21T15:58:20;25.20;59.00
66598;DHT22;57424;53.128;6.406;2022-07-21T16:00:46;25.20;59.00
66598;DHT22;57424;53.128;6.406;2022-07-21T16:03:12;25.20;59.00
66598;DHT22;57424;53.128;6.406;2022-07-21T16:05:37;25.20;59.00
66598;DHT22;57424;53.128;6.406;2022-07-21T16:08:03;25.20;59.00
66598;DHT22;57424;53.128;6.406;2022-07-21T16:10:29;25.20;59.00